Time;durP1;ratioP1;P1;durP2;ratioP2;P2;SDS_P1;SDS_P2;PMS_P1;PMS_P2;Temp;Humidity;BMP_temperature;BMP_pressure;BME280_temperature;BME280_humidity;BME280_pressure;Samples;Min_cycle;Max_cycle;Signal;HPM_P1;HPM_P2
2023/03/03 00:00:57;;;;;;;13.68;9.75;;;;;;;;;;5094255;28;20195;-72
2023/03/03 00:03:26;;;;;;;15.60;10.70;;;;;;;;;;5094512;28;20190;-71
2023/03/03 00:05:54;;;;;;;12.10;9.52;;;;;;;;;;5094367;28;20187;-72
2023/03/03 00:08:22;;;;;;;15.10;8.80;;;;;;;;;;5094307;28;20214;-72
2023/03/03 00:10:49;;;;;;;13.85;10.50;;;;;;;;;;5094173;28;20243;-71
2023/03/03 00:13:17;;;;;;;17.85;10.40;;;;;;;;;;5094245;28;20191;-71
2023/03/03 00:15:45;;;;;;;18.75;11.18;;;;;;;;;;5093883;28;20262;-72
2023/03/03 00:18:19;;;;;;;13.88;9.55;;;;;;;;;;5094320;28;20203;-71
2023/03/03 00:20:52;;;;;;;18.02;11.18;;;;;;;;;;5093936;28;20606;-71
2023/03/03 00:23:21;;;;;;;16.00;9.68;;;;;;;;;;5094059;28;20256;-72
2023/03/03 00:25:50;;;;;;;19.10;10.88;;;;;;;;;;5093852;28;20197;-72
2023/03/03 00:28:23;;;;;;;17.58;12.35;;;;;;;;;;5094031;28;20229;-71
2023/03/03 00:30:50;;;;;;;18.23;10.73;;;;;;;;;;5094095;28;20279;-71
2023/03/03 00:33:22;;;;;;;19.05;10.82;;;;;;;;;;5093834;28;20185;-71
2023/03/03 00:35:50;;;;;;;21.45;11.73;;;;;;;;;;5093862;28;20198;-71
2023/03/03 00:38:19;;;;;;;22.20;12.40;;;;;;;;;;5093657;28;20238;-72
2023/03/03 00:40:46;;;;;;;19.48;11.00;;;;;;;;;;5094017;28;20239;-72
2023/03/03 00:43:17;;;;;;;22.92;13.20;;;;;;;;;;5093626;28;20280;-71
2023/03/03 00:45:46;;;;;;;20.70;11.35;;;;;;;;;;5093761;28;20278;-71
2023/03/03 00:48:23;;;;;;;22.85;13.48;;;;;;;;;;5093927;28;20267;-72
2023/03/03 00:50:53;;;;;;;22.13;11.55;;;;;;;;;;5093496;28;20561;-71
2023/03/03 00:53:21;;;;;;;22.75;11.95;;;;;;;;;;5093712;28;20278;-71
2023/03/03 00:55:49;;;;;;;22.35;12.38;;;;;;;;;;5093588;28;20564;-72
2023/03/03 00:58:17;;;;;;;20.08;11.55;;;;;;;;;;5093478;28;20191;-71
2023/03/03 01:00:44;;;;;;;19.88;11.65;;;;;;;;;;5093418;28;20620;-71
2023/03/03 01:03:13;;;;;;;17.42;11.32;;;;;;;;;;5093057;28;20200;-71
2023/03/03 01:05:41;;;;;;;20.70;12.65;;;;;;;;;;5093329;28;20198;-72
2023/03/03 01:08:10;;;;;;;21.05;12.60;;;;;;;;;;5093564;28;20223;-72
2023/03/03 01:10:39;;;;;;;22.42;12.30;;;;;;;;;;5093165;28;20661;-71
2023/03/03 01:13:08;;;;;;;26.23;13.40;;;;;;;;;;5093302;28;20655;-71
2023/03/03 01:15:35;;;;;;;26.42;13.70;;;;;;;;;;5093536;28;20192;-71
2023/03/03 01:18:02;;;;;;;22.08;12.77;;;;;;;;;;5093206;28;20203;-71
2023/03/03 01:20:29;;;;;;;20.83;12.65;;;;;;;;;;5093208;28;20193;-71
2023/03/03 01:22:57;;;;;;;24.92;14.23;;;;;;;;;;5093380;28;20200;-72
2023/03/03 01:25:25;;;;;;;25.90;13.77;;;;;;;;;;5093046;28;20212;-71
2023/03/03 01:27:52;;;;;;;20.80;12.27;;;;;;;;;;5093163;28;20643;-71
2023/03/03 01:30:20;;;;;;;18.50;11.45;;;;;;;;;;5092946;28;20189;-71
2023/03/03 01:32:47;;;;;;;21.60;11.82;;;;;;;;;;5093341;28;20198;-69
2023/03/03 01:35:14;;;;;;;22.08;13.60;;;;;;;;;;5093218;28;20195;-70
2023/03/03 01:37:41;;;;;;;19.90;12.45;;;;;;;;;;5093030;28;20248;-70
2023/03/03 01:40:13;;;;;;;21.70;12.25;;;;;;;;;;5093040;28;20198;-70
2023/03/03 01:42:41;;;;;;;20.05;12.32;;;;;;;;;;5093017;28;20198;-71
2023/03/03 01:45:19;;;;;;;22.40;13.40;;;;;;;;;;5092900;28;20199;-70
2023/03/03 01:47:52;;;;;;;22.40;13.02;;;;;;;;;;5092787;28;20245;-70
2023/03/03 01:50:25;;;;;;;21.30;12.25;;;;;;;;;;5093197;28;20187;-70
2023/03/03 01:52:53;;;;;;;22.08;13.25;;;;;;;;;;5092873;28;20198;-70
2023/03/03 01:55:21;;;;;;;23.15;13.05;;;;;;;;;;5092673;28;20187;-70
2023/03/03 01:57:53;;;;;;;24.05;14.48;;;;;;;;;;5092868;28;20199;-70
2023/03/03 02:00:20;;;;;;;22.98;13.98;;;;;;;;;;5092828;28;20187;-70
2023/03/03 02:02:47;;;;;;;22.67;13.38;;;;;;;;;;5092858;28;20192;-71
2023/03/03 02:05:15;;;;;;;23.77;12.57;;;;;;;;;;5092662;28;20556;-70
2023/03/03 02:07:42;;;;;;;23.35;12.60;;;;;;;;;;5092598;28;20219;-70
2023/03/03 02:10:11;;;;;;;21.33;13.50;;;;;;;;;;5092614;28;20196;-70
2023/03/03 02:12:39;;;;;;;25.20;12.65;;;;;;;;;;5092657;28;20191;-71
2023/03/03 02:15:17;;;;;;;26.02;14.50;;;;;;;;;;5092981;28;20602;-70
2023/03/03 02:17:44;;;;;;;22.52;13.07;;;;;;;;;;5096215;28;20708;-70
2023/03/03 02:20:16;;;;;;;21.88;12.80;;;;;;;;;;5096396;28;20235;-70
2023/03/03 02:22:45;;;;;;;22.45;12.73;;;;;;;;;;5096289;28;20642;-71
2023/03/03 02:25:16;;;;;;;20.15;12.57;;;;;;;;;;5096468;28;20186;-70
2023/03/03 02:27:45;;;;;;;23.85;14.15;;;;;;;;;;5096355;28;20936;-70
2023/03/03 02:30:15;;;;;;;22.30;13.73;;;;;;;;;;5096285;28;20556;-71
2023/03/03 02:32:42;;;;;;;24.33;14.20;;;;;;;;;;5096142;28;20286;-70
2023/03/03 02:35:24;;;;;;;22.70;15.02;;;;;;;;;;5096315;28;20197;-70
2023/03/03 02:37:51;;;;;;;26.20;14.63;;;;;;;;;;5096280;28;20195;-70
2023/03/03 02:40:21;;;;;;;24.02;14.82;;;;;;;;;;5096088;28;20195;-70
2023/03/03 02:42:53;;;;;;;22.88;13.75;;;;;;;;;;5096252;28;20201;-70
2023/03/03 02:45:20;;;;;;;26.00;14.05;;;;;;;;;;5095950;28;20208;-70
2023/03/03 02:47:50;;;;;;;24.20;14.77;;;;;;;;;;5095984;28;20201;-71
2023/03/03 02:50:17;;;;;;;25.00;16.10;;;;;;;;;;5095786;28;20286;-71
2023/03/03 02:52:44;;;;;;;24.15;14.80;;;;;;;;;;5096001;28;20278;-70
2023/03/03 02:55:12;;;;;;;26.92;16.17;;;;;;;;;;5095841;28;20195;-70
2023/03/03 02:57:39;;;;;;;23.35;14.50;;;;;;;;;;5095723;28;20193;-70
2023/03/03 03:00:08;;;;;;;28.25;17.25;;;;;;;;;;5095607;28;20193;-70
2023/03/03 03:02:35;;;;;;;25.42;15.23;;;;;;;;;;5095733;28;20238;-70
2023/03/03 03:05:02;;;;;;;22.83;14.82;;;;;;;;;;5095670;28;20206;-70
2023/03/03 03:07:29;;;;;;;25.55;14.70;;;;;;;;;;5095622;28;20196;-70
2023/03/03 03:09:56;;;;;;;24.77;14.93;;;;;;;;;;5095360;28;20222;-70
2023/03/03 03:12:24;;;;;;;25.10;15.18;;;;;;;;;;5095360;28;20195;-69
2023/03/03 03:14:51;;;;;;;24.35;15.65;;;;;;;;;;5095284;28;20201;-69
2023/03/03 03:17:19;;;;;;;28.50;16.90;;;;;;;;;;5095133;28;20222;-69
2023/03/03 03:19:46;;;;;;;27.00;16.48;;;;;;;;;;5095325;28;20195;-70
2023/03/03 03:22:13;;;;;;;29.50;14.57;;;;;;;;;;5095232;28;20267;-69
2023/03/03 03:24:40;;;;;;;25.30;15.13;;;;;;;;;;5095309;28;20189;-69
2023/03/03 03:27:07;;;;;;;27.35;16.27;;;;;;;;;;5094538;28;20252;-70
2023/03/03 03:29:35;;;;;;;25.60;14.70;;;;;;;;;;5095084;28;20226;-69
2023/03/03 03:32:02;;;;;;;25.13;15.38;;;;;;;;;;5095363;28;20244;-70
2023/03/03 03:34:30;;;;;;;26.05;16.08;;;;;;;;;;5095120;28;20252;-69
2023/03/03 03:36:58;;;;;;;28.60;14.40;;;;;;;;;;5094939;28;20642;-69
2023/03/03 03:39:25;;;;;;;29.92;16.63;;;;;;;;;;5094640;28;20250;-69
2023/03/03 03:41:52;;;;;;;24.40;15.18;;;;;;;;;;5094791;28;20235;-69
2023/03/03 03:44:19;;;;;;;25.83;15.30;;;;;;;;;;5094957;28;20558;-69
2023/03/03 03:46:46;;;;;;;30.35;17.00;;;;;;;;;;5094782;28;20202;-69
2023/03/03 03:49:13;;;;;;;27.40;16.30;;;;;;;;;;5094736;28;20668;-70
2023/03/03 03:51:42;;;;;;;26.55;16.25;;;;;;;;;;5094846;28;20195;-70
2023/03/03 03:54:09;;;;;;;27.75;15.90;;;;;;;;;;5094870;28;20623;-70
2023/03/03 03:56:36;;;;;;;27.98;15.27;;;;;;;;;;5094810;28;20196;-70
2023/03/03 03:59:03;;;;;;;24.23;15.50;;;;;;;;;;5094669;28;20316;-70
2023/03/03 04:01:30;;;;;;;27.00;16.75;;;;;;;;;;5094532;28;20186;-70
2023/03/03 04:03:57;;;;;;;27.30;15.65;;;;;;;;;;5094519;28;20637;-70
2023/03/03 04:06:24;;;;;;;27.58;17.92;;;;;;;;;;5094357;28;20194;-70
2023/03/03 04:08:52;;;;;;;27.88;16.23;;;;;;;;;;5094214;28;20732;-69
2023/03/03 04:11:20;;;;;;;25.67;16.38;;;;;;;;;;5094517;28;20223;-70
2023/03/03 04:13:47;;;;;;;27.55;15.25;;;;;;;;;;5094306;28;20551;-70
2023/03/03 04:16:14;;;;;;;24.70;15.50;;;;;;;;;;5094260;28;20582;-69
2023/03/03 04:18:42;;;;;;;25.02;15.10;;;;;;;;;;5094378;28;20189;-69
2023/03/03 04:21:11;;;;;;;29.45;16.45;;;;;;;;;;5094056;28;20253;-70
2023/03/03 04:23:39;;;;;;;29.30;16.65;;;;;;;;;;5093881;28;20192;-69
2023/03/03 04:26:07;;;;;;;28.40;17.98;;;;;;;;;;5093982;28;20196;-70
2023/03/03 04:28:34;;;;;;;30.33;17.60;;;;;;;;;;5093766;28;20313;-70
2023/03/03 04:31:02;;;;;;;31.13;17.75;;;;;;;;;;5094002;28;20222;-70
2023/03/03 04:33:29;;;;;;;30.02;17.00;;;;;;;;;;5093859;28;20198;-70
2023/03/03 04:35:56;;;;;;;25.77;16.08;;;;;;;;;;5093711;28;20227;-70
2023/03/03 04:38:23;;;;;;;30.40;17.85;;;;;;;;;;5093099;28;20186;-70
2023/03/03 04:40:50;;;;;;;27.70;16.08;;;;;;;;;;5093579;28;20199;-70
2023/03/03 04:43:19;;;;;;;23.33;15.07;;;;;;;;;;5093609;28;20644;-70
2023/03/03 04:45:46;;;;;;;29.73;17.80;;;;;;;;;;5093581;28;20218;-70
2023/03/03 04:48:13;;;;;;;26.83;16.88;;;;;;;;;;5093490;28;20240;-70
2023/03/03 04:50:40;;;;;;;29.45;16.58;;;;;;;;;;5093622;28;20194;-70
2023/03/03 04:53:07;;;;;;;24.15;16.75;;;;;;;;;;5093630;28;20198;-70
2023/03/03 04:55:36;;;;;;;32.13;17.83;;;;;;;;;;5093323;28;20675;-70
2023/03/03 04:58:03;;;;;;;29.00;17.30;;;;;;;;;;5093517;28;20242;-70
2023/03/03 05:00:32;;;;;;;29.40;18.00;;;;;;;;;;5093403;28;20566;-70
2023/03/03 05:02:59;;;;;;;31.70;18.80;;;;;;;;;;5093101;28;20191;-70
2023/03/03 05:05:26;;;;;;;29.67;17.42;;;;;;;;;;5093445;28;20199;-70
2023/03/03 05:07:53;;;;;;;30.02;18.15;;;;;;;;;;5093366;28;20247;-70
2023/03/03 05:10:20;;;;;;;31.35;19.45;;;;;;;;;;5093384;28;20285;-70
2023/03/03 05:12:48;;;;;;;34.22;21.38;;;;;;;;;;5093269;28;20219;-70
2023/03/03 05:15:15;;;;;;;29.25;18.52;;;;;;;;;;5093132;28;20449;-70
2023/03/03 05:17:43;;;;;;;32.58;20.50;;;;;;;;;;5092905;28;20223;-70
2023/03/03 05:20:11;;;;;;;36.78;20.50;;;;;;;;;;5093218;28;20188;-70
2023/03/03 05:22:38;;;;;;;34.08;21.05;;;;;;;;;;5093160;28;20274;-70
2023/03/03 05:25:06;;;;;;;33.47;20.92;;;;;;;;;;5093023;28;20605;-70
2023/03/03 05:27:33;;;;;;;37.67;22.60;;;;;;;;;;5093056;28;20276;-70
2023/03/03 05:30:00;;;;;;;39.58;22.10;;;;;;;;;;5092864;28;20305;-70
2023/03/03 05:32:27;;;;;;;36.67;21.65;;;;;;;;;;5093115;28;20248;-70
2023/03/03 05:34:56;;;;;;;36.67;19.50;;;;;;;;;;5093112;28;20191;-70
2023/03/03 05:37:24;;;;;;;39.05;23.08;;;;;;;;;;5093026;28;20654;-70
2023/03/03 05:39:51;;;;;;;32.83;21.77;;;;;;;;;;5092900;28;20574;-70
2023/03/03 05:42:18;;;;;;;38.97;22.20;;;;;;;;;;5092852;28;20607;-70
2023/03/03 05:44:45;;;;;;;30.33;20.30;;;;;;;;;;5093367;28;20232;-70
2023/03/03 05:47:12;;;;;;;35.80;22.10;;;;;;;;;;5093084;28;20191;-70
2023/03/03 05:49:40;;;;;;;37.97;21.15;;;;;;;;;;5093243;28;20710;-70
2023/03/03 05:52:08;;;;;;;34.97;20.75;;;;;;;;;;5097113;28;20207;-70
2023/03/03 05:54:35;;;;;;;33.25;20.30;;;;;;;;;;5097038;28;20242;-70
2023/03/03 05:57:03;;;;;;;29.83;18.98;;;;;;;;;;5096844;28;20725;-70
2023/03/03 05:59:30;;;;;;;48.78;29.35;;;;;;;;;;5097102;28;20212;-72
2023/03/03 06:01:57;;;;;;;47.20;26.38;;;;;;;;;;5097194;28;20276;-69
2023/03/03 06:04:24;;;;;;;46.38;28.65;;;;;;;;;;5096917;28;20192;-69
2023/03/03 06:06:51;;;;;;;38.13;23.83;;;;;;;;;;5096896;28;20197;-69
2023/03/03 06:09:20;;;;;;;31.33;18.60;;;;;;;;;;5096780;28;20214;-69
2023/03/03 06:11:47;;;;;;;35.90;21.40;;;;;;;;;;5096477;28;20285;-69
2023/03/03 06:14:14;;;;;;;34.50;19.90;;;;;;;;;;5096741;28;20203;-69
2023/03/03 06:16:41;;;;;;;33.60;21.15;;;;;;;;;;5096691;28;20298;-69
2023/03/03 06:19:08;;;;;;;33.42;20.92;;;;;;;;;;5096772;28;20192;-69
2023/03/03 06:21:35;;;;;;;30.20;17.83;;;;;;;;;;5096709;28;20213;-70
2023/03/03 06:24:03;;;;;;;34.20;20.75;;;;;;;;;;5096101;28;20217;-69
2023/03/03 06:26:31;;;;;;;38.28;20.90;;;;;;;;;;5096306;28;20198;-69
2023/03/03 06:28:58;;;;;;;33.22;19.52;;;;;;;;;;5096248;28;20207;-70
2023/03/03 06:31:25;;;;;;;34.97;20.70;;;;;;;;;;5096074;28;20253;-70
2023/03/03 06:33:53;;;;;;;28.13;17.45;;;;;;;;;;5095915;28;20282;-70
2023/03/03 06:36:20;;;;;;;28.55;17.50;;;;;;;;;;5096026;28;20192;-70
2023/03/03 06:38:47;;;;;;;29.02;16.70;;;;;;;;;;5095780;28;20188;-70
2023/03/03 06:41:14;;;;;;;29.77;16.83;;;;;;;;;;5096109;28;20203;-70
2023/03/03 06:43:43;;;;;;;30.25;17.85;;;;;;;;;;5095989;28;20563;-71
2023/03/03 06:46:10;;;;;;;32.28;17.90;;;;;;;;;;5095755;28;20198;-70
2023/03/03 06:48:37;;;;;;;27.20;15.90;;;;;;;;;;5095920;28;20614;-70
2023/03/03 06:51:23;;;;;;;34.65;19.55;;;;;;;;;;5095647;28;20317;-70
2023/03/03 06:53:52;;;;;;;30.67;16.98;;;;;;;;;;5095552;28;20282;-70
2023/03/03 06:56:19;;;;;;;30.55;17.85;;;;;;;;;;5095673;28;20191;-70
2023/03/03 06:58:47;;;;;;;26.70;16.05;;;;;;;;;;5095784;28;20341;-70
2023/03/03 07:01:16;;;;;;;30.77;16.23;;;;;;;;;;5094953;28;20249;-70
2023/03/03 07:03:44;;;;;;;31.25;16.60;;;;;;;;;;5095164;28;20189;-70
2023/03/03 07:06:17;;;;;;;33.05;18.25;;;;;;;;;;5095583;28;20237;-70
2023/03/03 07:08:44;;;;;;;28.10;17.33;;;;;;;;;;5095683;28;20240;-71
2023/03/03 07:11:13;;;;;;;28.17;15.82;;;;;;;;;;5095222;28;20245;-70
2023/03/03 07:13:43;;;;;;;31.42;16.85;;;;;;;;;;5095316;28;20265;-70
2023/03/03 07:16:13;;;;;;;30.20;16.80;;;;;;;;;;5094952;28;20249;-70
2023/03/03 07:18:43;;;;;;;28.92;16.80;;;;;;;;;;5095246;28;20191;-70
2023/03/03 07:21:15;;;;;;;31.98;18.20;;;;;;;;;;5095378;28;20203;-70
2023/03/03 07:23:42;;;;;;;32.88;18.00;;;;;;;;;;5095289;28;20249;-70
2023/03/03 07:26:12;;;;;;;29.33;16.80;;;;;;;;;;5094989;28;20672;-70
2023/03/03 07:28:41;;;;;;;30.42;17.00;;;;;;;;;;5094988;28;20199;-70
2023/03/03 07:31:17;;;;;;;29.20;17.83;;;;;;;;;;5094806;28;20254;-70
2023/03/03 07:33:46;;;;;;;29.33;17.02;;;;;;;;;;5094847;28;20594;-72
2023/03/03 07:36:24;;;;;;;24.15;14.85;;;;;;;;;;5095089;28;20195;-71
2023/03/03 07:38:54;;;;;;;30.30;17.45;;;;;;;;;;5094851;28;20647;-71
2023/03/03 07:41:22;;;;;;;25.90;16.45;;;;;;;;;;5094779;28;20215;-70
2023/03/03 07:43:53;;;;;;;25.00;16.17;;;;;;;;;;5094751;28;20657;-70
2023/03/03 07:46:24;;;;;;;34.00;17.50;;;;;;;;;;5094882;28;20561;-70
2023/03/03 07:48:51;;;;;;;30.55;17.58;;;;;;;;;;5094748;28;20199;-71
2023/03/03 07:51:21;;;;;;;28.67;17.60;;;;;;;;;;5094678;28;20266;-70
2023/03/03 07:53:49;;;;;;;35.58;19.17;;;;;;;;;;5094511;28;20562;-70
2023/03/03 07:56:19;;;;;;;34.75;17.98;;;;;;;;;;5094626;28;20200;-70
2023/03/03 07:58:46;;;;;;;32.55;19.15;;;;;;;;;;5094399;28;20227;-71
2023/03/03 08:01:28;;;;;;;31.27;18.27;;;;;;;;;;5094721;28;20249;-71
2023/03/03 08:03:56;;;;;;;28.98;18.70;;;;;;;;;;5094372;28;20190;-70
2023/03/03 08:06:45;;;;;;;27.70;16.45;;;;;;;;;;5094229;28;20241;-70
2023/03/03 08:09:31;;;;;;;26.70;14.95;;;;;;;;;;5089735;28;20200;-70
2023/03/03 08:12:00;;;;;;;28.60;16.10;;;;;;;;;;5094265;28;20587;-71
2023/03/03 08:14:29;;;;;;;25.35;14.88;;;;;;;;;;5093990;28;20194;-71
2023/03/03 08:16:56;;;;;;;31.70;17.05;;;;;;;;;;5094093;28;20276;-71
2023/03/03 08:19:25;;;;;;;23.35;15.10;;;;;;;;;;5094303;28;20187;-76
2023/03/03 08:21:52;;;;;;;21.85;13.73;;;;;;;;;;5093968;28;20192;-68
2023/03/03 08:24:19;;;;;;;26.63;15.43;;;;;;;;;;5094003;28;20228;-65
2023/03/03 08:26:46;;;;;;;23.85;14.77;;;;;;;;;;5093939;28;20224;-65
2023/03/03 08:29:13;;;;;;;23.35;14.98;;;;;;;;;;5093758;28;20202;-69
2023/03/03 08:31:40;;;;;;;26.95;14.95;;;;;;;;;;5093543;28;20227;-63
2023/03/03 08:34:07;;;;;;;25.15;16.50;;;;;;;;;;5094280;28;20657;-74
2023/03/03 08:36:36;;;;;;;24.65;15.32;;;;;;;;;;5093684;28;20199;-68
2023/03/03 08:39:04;;;;;;;21.17;14.18;;;;;;;;;;5093859;28;20194;-66
2023/03/03 08:41:31;;;;;;;25.75;14.90;;;;;;;;;;5093539;28;20199;-66
2023/03/03 08:43:58;;;;;;;21.02;13.45;;;;;;;;;;5094370;28;20280;-70
2023/03/03 08:46:25;;;;;;;25.25;15.32;;;;;;;;;;5093858;28;20203;-68
2023/03/03 08:48:53;;;;;;;23.48;14.07;;;;;;;;;;5093504;28;20195;-66
2023/03/03 08:51:20;;;;;;;28.45;14.65;;;;;;;;;;5093571;28;20218;-80
2023/03/03 08:53:49;;;;;;;23.52;15.02;;;;;;;;;;5093359;28;20203;-63
2023/03/03 08:56:16;;;;;;;27.85;15.80;;;;;;;;;;5093249;28;20192;-70
2023/03/03 08:58:46;;;;;;;22.75;14.25;;;;;;;;;;5093436;28;20248;-67
2023/03/03 09:01:15;;;;;;;28.70;15.57;;;;;;;;;;5093432;28;20191;-68
2023/03/03 09:03:42;;;;;;;27.65;16.70;;;;;;;;;;5093209;28;20195;-68
2023/03/03 09:06:09;;;;;;;26.80;15.60;;;;;;;;;;5093337;28;20192;-75
2023/03/03 09:08:36;;;;;;;25.77;15.57;;;;;;;;;;5093176;28;20219;-67
2023/03/03 09:11:09;;;;;;;23.88;15.32;;;;;;;;;;5092864;28;20625;-66
2023/03/03 09:13:37;;;;;;;23.45;13.27;;;;;;;;;;5093289;28;20195;-73
2023/03/03 09:16:08;;;;;;;28.73;15.02;;;;;;;;;;5092823;28;20627;-67
2023/03/03 09:18:36;;;;;;;21.90;14.07;;;;;;;;;;5093030;28;20193;-67
2023/03/03 09:21:16;;;;;;;19.60;12.93;;;;;;;;;;5092882;28;20650;-73
2023/03/03 09:23:48;;;;;;;23.45;13.95;;;;;;;;;;5093134;28;20551;-64
2023/03/03 09:26:25;;;;;;;23.85;14.35;;;;;;;;;;5092472;28;20191;-73
2023/03/03 09:28:52;;;;;;;23.67;12.88;;;;;;;;;;5093095;28;20193;-61
2023/03/03 09:31:22;;;;;;;22.25;12.93;;;;;;;;;;5092749;28;20574;-82
2023/03/03 09:33:50;;;;;;;19.15;12.35;;;;;;;;;;5093645;28;20193;-88
2023/03/03 09:36:21;;;;;;;24.77;13.35;;;;;;;;;;5093227;28;20578;-68
2023/03/03 09:38:51;;;;;;;26.73;15.68;;;;;;;;;;5093029;28;20189;-68
2023/03/03 09:41:29;;;;;;;23.73;13.85;;;;;;;;;;5092884;28;20203;-70
2023/03/03 09:44:05;;;;;;;23.60;13.75;;;;;;;;;;5092905;28;20222;-70
2023/03/03 09:46:35;;;;;;;21.98;12.85;;;;;;;;;;5092945;28;20609;-70
2023/03/03 09:49:06;;;;;;;20.50;13.50;;;;;;;;;;5092949;28;20193;-66
2023/03/03 09:51:41;;;;;;;19.63;12.77;;;;;;;;;;5092493;28;20220;-70
2023/03/03 09:54:16;;;;;;;26.42;15.40;;;;;;;;;;5092748;28;20195;-69
2023/03/03 09:56:46;;;;;;;19.77;12.45;;;;;;;;;;5092579;28;20187;-63
2023/03/03 09:59:19;;;;;;;22.25;12.50;;;;;;;;;;5093081;28;20266;-64
2023/03/03 10:01:50;;;;;;;19.48;11.68;;;;;;;;;;5092859;28;20648;-66
2023/03/03 10:04:25;;;;;;;21.17;11.85;;;;;;;;;;5092629;28;20202;-71
2023/03/03 10:06:57;;;;;;;19.02;11.98;;;;;;;;;;5092532;28;20274;-66
2023/03/03 10:09:33;;;;;;;18.20;11.57;;;;;;;;;;5092505;28;20782;-79
2023/03/03 10:12:06;;;;;;;19.88;11.38;;;;;;;;;;5094837;28;20250;-70
2023/03/03 10:14:42;;;;;;;18.42;11.20;;;;;;;;;;5092452;28;20192;-63
2023/03/03 10:17:24;;;;;;;16.73;10.75;;;;;;;;;;5092254;28;20224;-69
2023/03/03 10:19:58;;;;;;;17.48;10.43;;;;;;;;;;5089970;28;20204;-65
2023/03/03 10:22:28;;;;;;;15.35;9.82;;;;;;;;;;5092671;28;20284;-63
2023/03/03 10:25:03;;;;;;;16.48;9.15;;;;;;;;;;5092662;28;20233;-63
2023/03/03 10:27:40;;;;;;;16.00;10.13;;;;;;;;;;5092330;28;20239;-73
2023/03/03 10:30:11;;;;;;;27.90;15.77;;;;;;;;;;5092364;28;20583;-83
2023/03/03 10:32:48;;;;;;;21.02;11.70;;;;;;;;;;5094583;28;20200;-85
2023/03/03 10:35:22;;;;;;;15.45;10.20;;;;;;;;;;5093408;28;20202;-66
2023/03/03 10:40:36;;;;;;;14.00;9.23;;;;;;;;;;5095356;28;20558;-62
2023/03/03 10:43:21;;;;;;;16.05;10.23;;;;;;;;;;5096184;28;20192;-61
2023/03/03 10:45:57;;;;;;;17.13;10.32;;;;;;;;;;5085894;28;20278;-72
2023/03/03 10:48:30;;;;;;;14.77;10.50;;;;;;;;;;5095803;28;20268;-61
2023/03/03 10:51:00;;;;;;;12.20;8.70;;;;;;;;;;5095713;28;20320;-62
2023/03/03 10:53:30;;;;;;;14.00;9.30;;;;;;;;;;5095954;28;20252;-62
2023/03/03 10:56:03;;;;;;;13.77;9.05;;;;;;;;;;5095565;28;20563;-68
2023/03/03 10:58:35;;;;;;;13.35;8.90;;;;;;;;;;5095678;28;20289;-68
2023/03/03 11:01:09;;;;;;;12.88;9.10;;;;;;;;;;5095428;28;20228;-70
2023/03/03 11:03:54;;;;;;;13.65;8.90;;;;;;;;;;5095546;28;20197;-64
2023/03/03 11:06:25;;;;;;;13.40;8.95;;;;;;;;;;5095288;28;20190;-64
2023/03/03 11:08:55;;;;;;;13.68;9.52;;;;;;;;;;5095501;28;20199;-66
2023/03/03 11:11:30;;;;;;;12.35;9.18;;;;;;;;;;5095175;28;20216;-64
2023/03/03 11:14:01;;;;;;;16.67;9.70;;;;;;;;;;5095592;28;20181;-63
2023/03/03 11:16:37;;;;;;;15.70;9.32;;;;;;;;;;5095230;28;20304;-68
2023/03/03 11:19:12;;;;;;;14.05;9.10;;;;;;;;;;5095159;28;20658;-71
2023/03/03 11:21:42;;;;;;;13.45;9.10;;;;;;;;;;5095048;28;20238;-71
2023/03/03 11:24:17;;;;;;;13.30;9.25;;;;;;;;;;5095057;28;20278;-65
2023/03/03 11:27:00;;;;;;;15.50;10.80;;;;;;;;;;5095178;28;20241;-69
2023/03/03 11:29:34;;;;;;;13.35;9.85;;;;;;;;;;5094845;28;20248;-66
2023/03/03 11:32:10;;;;;;;18.58;13.15;;;;;;;;;;5093436;28;20464;-66
2023/03/03 11:34:46;;;;;;;13.93;11.25;;;;;;;;;;5094494;28;20202;-66
2023/03/03 11:37:17;;;;;;;13.98;10.70;;;;;;;;;;5094908;28;20184;-66
2023/03/03 11:39:44;;;;;;;11.97;9.10;;;;;;;;;;5094867;28;20288;-66
2023/03/03 11:42:16;;;;;;;13.60;9.57;;;;;;;;;;5094854;28;20499;-66
2023/03/03 11:44:46;;;;;;;10.57;8.90;;;;;;;;;;5094651;28;20193;-66
2023/03/03 11:47:18;;;;;;;12.32;10.35;;;;;;;;;;5094512;28;20207;-65
2023/03/03 11:49:49;;;;;;;13.17;9.60;;;;;;;;;;5094946;28;20222;-66
2023/03/03 11:52:22;;;;;;;14.60;10.38;;;;;;;;;;5095007;28;20892;-65
2023/03/03 11:54:56;;;;;;;14.88;10.40;;;;;;;;;;5094741;28;20606;-65
2023/03/03 11:57:28;;;;;;;14.60;9.98;;;;;;;;;;5094452;28;20619;-65
2023/03/03 11:59:59;;;;;;;15.40;11.83;;;;;;;;;;5094529;28;20578;-65
2023/03/03 12:02:42;;;;;;;16.13;10.60;;;;;;;;;;5094586;28;21006;-66
2023/03/03 12:05:13;;;;;;;13.98;10.30;;;;;;;;;;5093315;28;20482;-64
2023/03/03 12:07:45;;;;;;;21.23;11.35;;;;;;;;;;5094397;28;20192;-65
2023/03/03 12:10:20;;;;;;;14.87;9.47;;;;;;;;;;5094362;28;20705;-65
2023/03/03 12:12:52;;;;;;;19.27;11.07;;;;;;;;;;5094303;28;20571;-65
2023/03/03 12:15:24;;;;;;;13.73;9.40;;;;;;;;;;5094472;28;20196;-66
2023/03/03 12:18:11;;;;;;;13.33;9.90;;;;;;;;;;5094479;28;20219;-64
2023/03/03 12:20:45;;;;;;;14.40;9.97;;;;;;;;;;5093983;28;20964;-66
2023/03/03 12:23:20;;;;;;;15.10;9.80;;;;;;;;;;5094244;28;20475;-65
2023/03/03 12:25:49;;;;;;;12.15;9.25;;;;;;;;;;5094213;28;20191;-65
2023/03/03 12:28:18;;;;;;;13.87;10.93;;;;;;;;;;5093987;28;20686;-66
2023/03/03 12:31:01;;;;;;;12.18;9.35;;;;;;;;;;5093734;28;20461;-66
2023/03/03 12:33:34;;;;;;;12.00;8.90;;;;;;;;;;5094063;28;20695;-65
2023/03/03 12:36:07;;;;;;;16.83;10.55;;;;;;;;;;5093771;28;21013;-65
2023/03/03 12:38:38;;;;;;;16.10;9.57;;;;;;;;;;5093941;28;20195;-65
2023/03/03 12:41:08;;;;;;;13.37;9.43;;;;;;;;;;5093729;28;20242;-66
2023/03/03 12:43:44;;;;;;;14.93;10.00;;;;;;;;;;5093844;28;20798;-65
2023/03/03 12:46:14;;;;;;;19.90;10.80;;;;;;;;;;5093761;28;20448;-66
2023/03/03 12:48:43;;;;;;;15.60;11.00;;;;;;;;;;5093695;28;20222;-66
2023/03/03 12:51:16;;;;;;;17.27;10.83;;;;;;;;;;5093450;28;20273;-65
2023/03/03 12:53:52;;;;;;;12.47;9.27;;;;;;;;;;5093467;28;20600;-66
2023/03/03 12:56:24;;;;;;;13.05;9.82;;;;;;;;;;5093640;28;20897;-65
2023/03/03 12:58:55;;;;;;;17.92;10.77;;;;;;;;;;5093274;28;20276;-65
2023/03/03 13:01:27;;;;;;;16.95;11.77;;;;;;;;;;5093047;28;20197;-64
2023/03/03 13:03:58;;;;;;;16.60;10.13;;;;;;;;;;5093431;28;20280;-65
2023/03/03 13:06:30;;;;;;;16.27;11.03;;;;;;;;;;5093269;28;20792;-66
2023/03/03 13:09:02;;;;;;;19.97;12.60;;;;;;;;;;5093687;28;20457;-65
2023/03/03 13:11:37;;;;;;;24.17;12.70;;;;;;;;;;5093533;28;20470;-64
2023/03/03 13:14:11;;;;;;;20.67;11.67;;;;;;;;;;5093313;28;20940;-65
2023/03/03 13:16:40;;;;;;;18.07;11.43;;;;;;;;;;5092982;28;20558;-66
2023/03/03 13:19:10;;;;;;;19.37;12.43;;;;;;;;;;5093409;28;21007;-66
2023/03/03 13:21:42;;;;;;;17.77;11.33;;;;;;;;;;5093362;28;20439;-66
2023/03/03 13:24:16;;;;;;;21.45;12.00;;;;;;;;;;5093197;28;20451;-64
2023/03/03 13:26:45;;;;;;;19.30;11.70;;;;;;;;;;5092678;28;20276;-66
2023/03/03 13:29:15;;;;;;;25.73;12.15;;;;;;;;;;5092857;28;20457;-65
2023/03/03 13:31:46;;;;;;;19.73;12.10;;;;;;;;;;5093049;28;20209;-65
2023/03/03 13:34:19;;;;;;;26.80;13.13;;;;;;;;;;5093077;28;20193;-65
2023/03/03 13:36:51;;;;;;;25.20;13.60;;;;;;;;;;5093112;28;20271;-65
2023/03/03 13:39:20;;;;;;;20.53;13.43;;;;;;;;;;5092870;28;20823;-65
2023/03/03 13:41:50;;;;;;;22.17;13.73;;;;;;;;;;5092940;28;20551;-65
2023/03/03 13:44:19;;;;;;;20.63;13.40;;;;;;;;;;5093129;28;20541;-65
2023/03/03 13:46:53;;;;;;;21.20;13.17;;;;;;;;;;5093231;28;20596;-65
2023/03/03 13:49:34;;;;;;;18.50;12.37;;;;;;;;;;5092853;28;20527;-65
2023/03/03 13:52:04;;;;;;;19.77;12.13;;;;;;;;;;5092736;28;20474;-65
2023/03/03 13:54:43;;;;;;;16.50;13.40;;;;;;;;;;5092872;28;20455;-65
2023/03/03 13:57:24;;;;;;;16.33;10.77;;;;;;;;;;5092943;28;20878;-65
2023/03/03 13:59:56;;;;;;;17.60;11.70;;;;;;;;;;5092687;28;20462;-65
2023/03/03 14:02:38;;;;;;;21.13;12.80;;;;;;;;;;5092861;28;20192;-64
2023/03/03 14:05:12;;;;;;;19.90;13.20;;;;;;;;;;5092608;28;20449;-65
2023/03/03 14:07:43;;;;;;;23.52;13.10;;;;;;;;;;5092871;28;20847;-65
2023/03/03 14:10:15;;;;;;;19.75;13.93;;;;;;;;;;5093165;28;20197;-65
2023/03/03 14:12:46;;;;;;;20.77;12.35;;;;;;;;;;5096298;28;20245;-63
2023/03/03 14:15:20;;;;;;;19.90;13.15;;;;;;;;;;5096681;28;20185;-65
2023/03/03 14:17:54;;;;;;;20.23;12.90;;;;;;;;;;5096381;28;20583;-65
2023/03/03 14:20:23;;;;;;;17.77;12.60;;;;;;;;;;5096476;28;20450;-65
2023/03/03 14:22:53;;;;;;;25.13;14.90;;;;;;;;;;5096538;28;20196;-65
2023/03/03 14:25:21;;;;;;;20.02;13.15;;;;;;;;;;5096408;28;20398;-65
2023/03/03 14:28:03;;;;;;;23.25;14.50;;;;;;;;;;5096591;28;20223;-65
2023/03/03 14:30:32;;;;;;;19.38;12.00;;;;;;;;;;5096371;28;20250;-65
2023/03/03 14:33:13;;;;;;;21.20;12.55;;;;;;;;;;5096315;28;20282;-65
2023/03/03 14:35:41;;;;;;;21.35;13.13;;;;;;;;;;5094022;28;20192;-65
2023/03/03 14:38:13;;;;;;;20.63;12.77;;;;;;;;;;5096419;28;20220;-65